Time;durP1;ratioP1;P1;durP2;ratioP2;P2;SDS_P1;SDS_P2;PMS_P1;PMS_P2;Temp;Humidity;BMP_temperature;BMP_pressure;BME280_temperature;BME280_humidity;BME280_pressure;Samples;Min_cycle;Max_cycle;Signal;HPM_P1;HPM_P2
2021/03/30 00:00:08;;;;;;;16.40;7.95;;;10.60;44.70;;;;;;5021307;28;20021;-78
2021/03/30 00:02:34;;;;;;;14.77;8.07;;;10.60;44.90;;;;;;5021944;28;20065;-78
2021/03/30 00:05:00;;;;;;;15.55;7.72;;;10.50;45.00;;;;;;5023946;28;20109;-77
2021/03/30 00:07:27;;;;;;;16.13;8.25;;;10.50;45.10;;;;;;5022257;28;20049;-77
2021/03/30 00:09:52;;;;;;;15.02;7.60;;;10.50;45.30;;;;;;5024074;28;20052;-76
2021/03/30 00:12:18;;;;;;;13.57;7.93;;;10.40;45.40;;;;;;5022292;28;20034;-76
2021/03/30 00:14:44;;;;;;;15.93;8.35;;;10.40;45.60;;;;;;5022249;28;20037;-79
2021/03/30 00:17:10;;;;;;;15.63;8.60;;;10.30;45.80;;;;;;5021609;28;20021;-76
2021/03/30 00:19:35;;;;;;;15.02;8.88;;;10.30;46.10;;;;;;5023962;28;20029;-77
2021/03/30 00:22:01;;;;;;;12.60;7.85;;;10.20;46.30;;;;;;5024045;28;20033;-76
2021/03/30 00:24:27;;;;;;;13.13;8.77;;;10.20;46.70;;;;;;5026033;28;20124;-76
2021/03/30 00:26:53;;;;;;;13.40;8.35;;;10.10;47.00;;;;;;5023155;28;20104;-77
2021/03/30 00:29:19;;;;;;;13.82;8.45;;;10.00;47.20;;;;;;5022915;28;20025;-77
2021/03/30 00:31:44;;;;;;;13.05;7.97;;;10.00;47.50;;;;;;5022274;28;20052;-79
2021/03/30 00:34:10;;;;;;;15.00;8.10;;;10.00;47.60;;;;;;5023596;28;20120;-75
2021/03/30 00:36:36;;;;;;;13.73;8.35;;;9.90;47.80;;;;;;5022615;28;20246;-76
2021/03/30 00:39:02;;;;;;;18.55;8.25;;;9.90;47.90;;;;;;5022624;28;20045;-76
2021/03/30 00:41:27;;;;;;;13.70;8.00;;;9.80;48.10;;;;;;5023789;28;20022;-76
2021/03/30 00:43:53;;;;;;;14.80;8.43;;;9.80;48.20;;;;;;5023520;28;20521;-76
2021/03/30 00:46:20;;;;;;;16.42;8.88;;;9.80;48.20;;;;;;5022313;28;20044;-76
2021/03/30 00:48:48;;;;;;;19.40;9.43;;;9.70;48.30;;;;;;5024062;28;20460;-78
2021/03/30 00:51:16;;;;;;;14.60;8.30;;;9.60;48.50;;;;;;5019367;28;20540;-77
2021/03/30 00:53:42;;;;;;;18.92;9.60;;;9.60;48.70;;;;;;5023128;28;20021;-76
2021/03/30 00:56:08;;;;;;;17.33;9.27;;;9.50;48.80;;;;;;5021118;28;20475;-77
2021/03/30 00:58:34;;;;;;;15.88;8.77;;;9.40;48.90;;;;;;5023106;28;20045;-75
2021/03/30 01:01:01;;;;;;;19.13;9.25;;;9.40;49.20;;;;;;5022483;28;20046;-76
2021/03/30 01:03:27;;;;;;;15.05;9.40;;;9.30;49.10;;;;;;5021145;28;20041;-76
2021/03/30 01:05:52;;;;;;;15.85;9.77;;;9.30;49.20;;;;;;5022974;28;20026;-77
2021/03/30 01:08:30;;;;;;;17.85;9.30;;;9.20;49.30;;;;;;5022069;28;20101;-75
2021/03/30 01:11:28;;;;;;;14.13;9.45;;;9.20;49.30;;;;;;5019432;28;20101;-77
2021/03/30 01:13:56;;;;;;;21.10;9.88;;;9.10;49.40;;;;;;4984897;28;20034;-76
2021/03/30 01:16:40;;;;;;;19.13;9.68;;;9.10;49.30;;;;;;5022347;28;20105;-76
2021/03/30 01:19:30;;;;;;;16.00;10.05;;;9.10;49.50;;;;;;5022143;28;20025;-77
2021/03/30 01:22:40;;;;;;;17.55;8.50;;;9.10;49.70;;;;;;5020357;28;20140;-76
2021/03/30 01:25:07;;;;;;;14.52;9.00;;;9.20;49.80;;;;;;5007781;28;20087;-76
2021/03/30 01:27:58;;;;;;;16.10;9.13;;;9.10;49.50;;;;;;5018158;28;20028;-75
2021/03/30 01:30:26;;;;;;;17.85;9.23;;;9.10;49.70;;;;;;5016135;28;20033;-76
2021/03/30 01:33:01;;;;;;;17.55;9.50;;;9.10;49.60;;;;;;5021342;28;20037;-76
2021/03/30 01:35:28;;;;;;;16.55;9.70;;;9.10;49.80;;;;;;5020880;28;20055;-75
2021/03/30 01:37:56;;;;;;;18.65;9.85;;;9.10;49.60;;;;;;5018580;28;20468;-76
2021/03/30 01:40:26;;;;;;;16.23;9.85;;;9.10;49.70;;;;;;5021677;28;20022;-76
2021/03/30 01:42:52;;;;;;;15.48;9.50;;;9.00;49.80;;;;;;5023036;28;20025;-76
2021/03/30 01:45:20;;;;;;;20.08;10.02;;;9.00;49.90;;;;;;4999898;28;20057;-76
2021/03/30 01:47:46;;;;;;;19.00;10.48;;;8.90;49.90;;;;;;5021726;28;20415;-76
2021/03/30 01:50:14;;;;;;;16.88;9.82;;;8.90;50.00;;;;;;5022842;28;20066;-76
2021/03/30 01:52:41;;;;;;;20.88;10.25;;;8.80;50.20;;;;;;5022873;28;20137;-76
2021/03/30 01:55:12;;;;;;;16.60;9.20;;;8.70;50.20;;;;;;5022132;28;20034;-76
2021/03/30 01:57:40;;;;;;;17.70;8.90;;;8.70;50.40;;;;;;5018283;28;20021;-75
2021/03/30 02:00:09;;;;;;;14.10;9.27;;;8.60;50.40;;;;;;5022673;28;20029;-76
2021/03/30 02:02:36;;;;;;;17.90;9.32;;;8.60;50.50;;;;;;5018657;28;20133;-77
2021/03/30 02:05:03;;;;;;;17.52;9.43;;;8.50;50.50;;;;;;5022094;28;20026;-76
2021/03/30 02:07:29;;;;;;;16.38;10.13;;;8.50;50.80;;;;;;5019227;28;20065;-76
2021/03/30 02:10:00;;;;;;;18.08;9.98;;;8.40;50.90;;;;;;5022094;28;20045;-77
2021/03/30 02:12:35;;;;;;;18.65;10.15;;;8.40;51.10;;;;;;5022404;28;20030;-75
2021/03/30 02:15:01;;;;;;;;;;;8.30;51.30;;;;;;5019982;28;20034;-76
2021/03/30 02:17:56;;;;;;;17.20;10.02;;;8.30;51.10;;;;;;5020745;28;19916;-75
2021/03/30 02:20:29;;;;;;;17.00;10.57;;;8.30;51.50;;;;;;5021756;28;20026;-75
2021/03/30 02:23:04;;;;;;;16.73;10.50;;;8.20;51.80;;;;;;5018443;28;20034;-76
2021/03/30 02:25:31;;;;;;;;;;;8.20;52.20;;;;;;5020927;28;20076;-75
2021/03/30 02:28:04;;;;;;;21.10;10.35;;;8.10;51.80;;;;;;5023288;28;19916;-75
2021/03/30 02:30:32;;;;;;;18.13;10.38;;;8.10;52.20;;;;;;5020367;28;20068;-75
2021/03/30 02:32:58;;;;;;;21.02;10.90;;;8.10;52.50;;;;;;5017836;28;20099;-83
2021/03/30 02:35:25;;;;;;;15.65;10.23;;;8.10;52.80;;;;;;5020696;28;20050;-75
2021/03/30 02:37:52;;;;;;;15.82;10.85;;;8.00;53.10;;;;;;5022003;28;20021;-75
2021/03/30 02:40:21;;;;;;;16.95;11.55;;;8.00;53.40;;;;;;5022562;28;20059;-75
2021/03/30 02:42:48;;;;;;;17.10;11.10;;;8.00;53.60;;;;;;5024642;28;20033;-75
2021/03/30 02:45:16;;;;;;;20.27;10.65;;;7.90;53.80;;;;;;5016526;28;20515;-75
2021/03/30 02:47:44;;;;;;;21.00;11.25;;;7.90;54.10;;;;;;5025661;28;20060;-75
2021/03/30 02:50:11;;;;;;;19.35;11.13;;;7.90;54.30;;;;;;5023578;28;20033;-76
2021/03/30 02:52:37;;;;;;;18.98;11.25;;;7.80;54.60;;;;;;5023777;28;20048;-76
2021/03/30 02:55:05;;;;;;;20.73;11.20;;;7.80;55.00;;;;;;5025433;28;20455;-76
2021/03/30 02:57:30;;;;;;;19.80;12.20;;;7.80;55.50;;;;;;5025271;28;20022;-75
2021/03/30 02:59:57;;;;;;;20.67;12.27;;;7.70;55.80;;;;;;5023803;28;20476;-76
2021/03/30 03:02:25;;;;;;;21.88;13.10;;;7.70;56.10;;;;;;5024272;28;20042;-76
2021/03/30 03:04:51;;;;;;;23.38;13.02;;;7.70;56.40;;;;;;5025568;28;20088;-76
2021/03/30 03:07:18;;;;;;;19.80;11.60;;;7.70;56.70;;;;;;5023670;28;20471;-76
2021/03/30 03:09:45;;;;;;;19.67;12.45;;;7.70;56.90;;;;;;5026349;28;20017;-76
2021/03/30 03:12:12;;;;;;;23.23;13.00;;;7.70;57.10;;;;;;5023249;28;20032;-76
2021/03/30 03:14:41;;;;;;;19.23;12.65;;;7.60;57.20;;;;;;5024797;28;20124;-76
2021/03/30 03:17:08;;;;;;;23.15;13.50;;;7.60;57.50;;;;;;5024819;28;20484;-76
2021/03/30 03:19:36;;;;;;;22.63;12.90;;;7.50;57.40;;;;;;5022137;28;20022;-76
2021/03/30 03:22:04;;;;;;;26.33;12.75;;;7.50;57.50;;;;;;5024045;28;20379;-76
2021/03/30 03:24:30;;;;;;;19.70;11.80;;;7.50;57.50;;;;;;5022513;28;20041;-78
2021/03/30 03:26:56;;;;;;;17.38;10.75;;;7.40;57.30;;;;;;5025016;28;20025;-77
2021/03/30 03:29:22;;;;;;;21.08;10.80;;;7.40;57.20;;;;;;5024361;28;20415;-76
2021/03/30 03:31:49;;;;;;;16.60;10.63;;;7.40;57.00;;;;;;5023354;28;20021;-76
2021/03/30 03:34:16;;;;;;;18.15;10.73;;;7.30;56.90;;;;;;5020373;28;20022;-74
2021/03/30 03:36:46;;;;;;;20.35;11.25;;;7.30;56.80;;;;;;5023127;28;20491;-76
2021/03/30 03:39:14;;;;;;;19.20;11.18;;;7.30;56.80;;;;;;5022897;28;20453;-76
2021/03/30 03:41:41;;;;;;;20.52;11.38;;;7.30;56.70;;;;;;5024034;28;20079;-76
2021/03/30 03:44:08;;;;;;;24.08;11.95;;;7.30;56.80;;;;;;5024283;28;20038;-76
2021/03/30 03:46:35;;;;;;;47.58;11.82;;;7.30;56.90;;;;;;5022835;28;20065;-76
2021/03/30 03:49:01;;;;;;;22.52;11.77;;;7.30;56.90;;;;;;5023555;28;20476;-77
2021/03/30 03:51:32;;;;;;;20.90;10.43;;;7.30;56.80;;;;;;5023761;28;20029;-78
2021/03/30 03:54:00;;;;;;;21.60;11.02;;;7.30;56.70;;;;;;5022426;28;20022;-76
2021/03/30 03:56:42;;;;;;;22.92;12.57;;;7.30;56.50;;;;;;5024386;28;20132;-79
2021/03/30 03:59:16;;;;;;;24.55;12.98;;;7.40;56.40;;;;;;5029379;28;20104;-75
2021/03/30 04:01:47;;;;;;;35.67;16.30;;;7.40;56.30;;;;;;5031759;28;20062;-75
2021/03/30 04:04:39;;;;;;;66.05;28.10;;;7.40;56.10;;;;;;5019937;28;20050;-75
2021/03/30 04:07:06;;;;;;;48.78;20.88;;;7.40;56.10;;;;;;5021951;28;20022;-75
2021/03/30 04:09:34;;;;;;;35.63;19.33;;;7.40;56.00;;;;;;5022962;28;20029;-76
2021/03/30 04:12:01;;;;;;;23.58;14.65;;;7.40;56.00;;;;;;5024138;28;20021;-76
2021/03/30 04:14:28;;;;;;;22.35;12.82;;;7.40;56.10;;;;;;5022637;28;20025;-75
2021/03/30 04:16:55;;;;;;;25.58;12.88;;;7.50;56.30;;;;;;5022708;28;20018;-76
2021/03/30 04:19:21;;;;;;;21.23;11.70;;;7.50;56.40;;;;;;5025484;28;20014;-75
2021/03/30 04:21:48;;;;;;;23.77;11.90;;;7.60;56.40;;;;;;5023510;28;20056;-76
2021/03/30 04:24:13;;;;;;;23.30;10.90;;;7.60;56.40;;;;;;5024148;28;20108;-75
2021/03/30 04:26:41;;;;;;;18.80;10.77;;;7.70;56.40;;;;;;5029694;28;20109;-75
2021/03/30 04:29:07;;;;;;;18.95;10.90;;;7.70;56.30;;;;;;5034091;28;20401;-76
2021/03/30 04:31:33;;;;;;;22.05;12.57;;;7.80;56.30;;;;;;5033973;28;20053;-75
2021/03/30 04:33:59;;;;;;;21.60;11.93;;;7.80;56.20;;;;;;5029474;28;20138;-76
2021/03/30 04:36:25;;;;;;;24.45;11.10;;;7.80;56.20;;;;;;5024015;28;20425;-75
2021/03/30 04:38:51;;;;;;;23.08;11.85;;;7.90;56.20;;;;;;5021177;28;20522;-79
2021/03/30 04:41:17;;;;;;;29.50;11.80;;;8.00;56.80;;;;;;5016379;28;20365;-75
2021/03/30 04:43:43;;;;;;;24.95;11.88;;;8.00;56.20;;;;;;5019249;28;20028;-76
2021/03/30 04:46:09;;;;;;;30.88;13.07;;;8.00;56.10;;;;;;5023981;28;20029;-76
2021/03/30 04:48:35;;;;;;;26.05;12.18;;;8.10;56.10;;;;;;5022186;28;20479;-76
2021/03/30 04:51:03;;;;;;;33.53;14.68;;;8.10;56.10;;;;;;5013167;28;20116;-79
2021/03/30 04:53:29;;;;;;;58.38;15.57;;;8.20;56.10;;;;;;5013939;28;20113;-75
2021/03/30 04:55:55;;;;;;;34.83;14.55;;;8.20;56.10;;;;;;5014078;28;20168;-75
2021/03/30 04:58:20;;;;;;;24.90;13.55;;;8.30;56.10;;;;;;5014037;28;20030;-75
2021/03/30 05:00:47;;;;;;;76.45;15.15;;;8.30;55.90;;;;;;5013578;28;20116;-76
2021/03/30 05:03:12;;;;;;;56.38;13.85;;;8.40;55.80;;;;;;5013728;28;20049;-76
2021/03/30 05:05:39;;;;;;;24.67;11.82;;;8.50;55.50;;;;;;5013577;28;20041;-76
2021/03/30 05:08:05;;;;;;;23.08;12.65;;;8.50;55.20;;;;;;5016319;28;20030;-75
2021/03/30 05:10:30;;;;;;;28.70;13.57;;;8.60;55.00;;;;;;5012833;28;20030;-75
2021/03/30 05:12:56;;;;;;;30.13;12.73;;;8.60;54.80;;;;;;5013443;28;20080;-75
2021/03/30 05:15:22;;;;;;;20.98;11.52;;;8.60;54.50;;;;;;5012603;28;20178;-75
2021/03/30 05:17:49;;;;;;;51.47;13.45;;;8.70;54.30;;;;;;5013540;28;20109;-75
2021/03/30 05:20:15;;;;;;;37.00;12.45;;;8.70;54.00;;;;;;5012653;28;20030;-76
2021/03/30 05:22:40;;;;;;;38.53;12.25;;;8.80;53.80;;;;;;5013432;28;20049;-75
2021/03/30 05:25:08;;;;;;;23.38;11.85;;;8.80;53.70;;;;;;5013196;28;20041;-76
2021/03/30 05:27:35;;;;;;;23.80;11.52;;;8.80;53.50;;;;;;5013402;28;20487;-76
2021/03/30 05:30:01;;;;;;;20.60;11.57;;;8.90;53.40;;;;;;5013263;28;20148;-74
2021/03/30 05:32:27;;;;;;;31.27;13.88;;;8.90;53.70;;;;;;5013232;28;20519;-75
2021/03/30 05:34:53;;;;;;;36.10;12.88;;;8.90;52.90;;;;;;5013278;28;20395;-76
2021/03/30 05:37:19;;;;;;;26.33;12.00;;;8.90;52.70;;;;;;5013368;28;20019;-76
2021/03/30 05:39:45;;;;;;;21.63;11.43;;;9.00;52.60;;;;;;5012207;28;20026;-77
2021/03/30 05:42:14;;;;;;;55.03;15.60;;;9.00;52.40;;;;;;5015477;28;20092;-76
2021/03/30 05:44:41;;;;;;;43.47;13.80;;;9.10;52.40;;;;;;5022859;28;20092;-77
2021/03/30 05:47:25;;;;;;;30.50;12.43;;;9.20;52.30;;;;;;5020846;28;20037;-76
2021/03/30 05:49:51;;;;;;;31.08;11.35;;;9.20;52.20;;;;;;5018435;28;20112;-76
2021/03/30 05:52:42;;;;;;;24.00;11.63;;;9.30;52.10;;;;;;5022550;28;20014;-76
2021/03/30 05:55:30;;;;;;;30.92;13.50;;;9.30;52.00;;;;;;5022294;28;20025;-80
2021/03/30 05:57:58;;;;;;;28.95;12.52;;;9.30;51.90;;;;;;5020273;28;20136;-76
2021/03/30 06:00:37;;;;;;;26.98;12.93;;;9.40;51.80;;;;;;5020392;28;20420;-76
2021/03/30 06:03:06;;;;;;;36.70;13.07;;;9.40;51.70;;;;;;4983783;28;20038;-75
2021/03/30 06:05:32;;;;;;;44.92;12.63;;;9.50;51.60;;;;;;4983263;28;20070;-76
2021/03/30 06:08:00;;;;;;;131.52;19.83;;;9.60;51.60;;;;;;4982939;28;20796;-75
2021/03/30 06:10:28;;;;;;;28.80;12.32;;;9.60;51.60;;;;;;4982244;28;20033;-76
2021/03/30 06:12:55;;;;;;;25.45;13.23;;;9.70;51.60;;;;;;4977447;28;20038;-76
2021/03/30 06:15:29;;;;;;;30.08;13.25;;;9.80;51.60;;;;;;4974699;28;20026;-76
2021/03/30 06:17:56;;;;;;;26.20;13.23;;;9.90;51.60;;;;;;4977698;28;20022;-76
2021/03/30 06:20:28;;;;;;;27.20;12.43;;;9.90;51.30;;;;;;4977701;28;20023;-74
2021/03/30 06:23:00;;;;;;;28.83;12.75;;;10.00;51.10;;;;;;4977701;28;20051;-77
2021/03/30 06:25:45;;;;;;;21.65;12.20;;;10.10;50.90;;;;;;4977531;28;20039;-75
2021/03/30 06:28:16;;;;;;;44.85;16.35;;;10.10;50.70;;;;;;4977434;28;20062;-76
2021/03/30 06:30:54;;;;;;;25.05;13.27;;;10.20;50.70;;;;;;4977536;28;20077;-76
2021/03/30 06:33:20;;;;;;;27.20;13.00;;;10.20;50.80;;;;;;4977672;28;20457;-75
2021/03/30 06:35:46;;;;;;;22.95;12.52;;;10.20;50.70;;;;;;4976229;28;20129;-75
2021/03/30 06:38:12;;;;;;;29.75;12.88;;;10.20;50.70;;;;;;4976972;28;20033;-76
2021/03/30 06:40:39;;;;;;;27.17;13.20;;;10.30;50.70;;;;;;4977133;28;20421;-76
2021/03/30 06:46:11;;;;;;;25.10;13.15;;;10.40;50.70;;;;;;4976904;28;20042;-77
2021/03/30 06:48:40;;;;;;;35.95;14.98;;;10.50;50.50;;;;;;4992026;28;20113;-76
2021/03/30 06:51:20;;;;;;;34.58;14.52;;;10.50;50.40;;;;;;4977307;28;20085;-76
2021/03/30 06:53:46;;;;;;;21.88;12.50;;;10.60;50.40;;;;;;4976957;28;20346;-76
2021/03/30 06:56:12;;;;;;;31.45;13.60;;;10.60;50.20;;;;;;4977142;28;20085;-77
2021/03/30 06:58:57;;;;;;;38.20;12.98;;;10.70;50.10;;;;;;4981897;28;20033;-76
2021/03/30 07:01:27;;;;;;;;;;;10.70;50.10;;;;;;5000687;28;20045;-76
2021/03/30 07:03:55;;;;;;;37.80;14.90;;;10.70;50.10;;;;;;5023348;28;20000;-76
2021/03/30 07:06:23;;;;;;;32.90;13.63;;;10.80;50.00;;;;;;5023621;28;20033;-76
2021/03/30 07:08:49;;;;;;;24.00;12.82;;;10.80;49.90;;;;;;5025517;28;20029;-75
2021/03/30 07:11:18;;;;;;;31.27;13.82;;;10.90;49.90;;;;;;5024027;28;20080;-76
2021/03/30 07:13:45;;;;;;;31.40;13.68;;;10.90;50.00;;;;;;5023397;28;20021;-75
2021/03/30 07:16:21;;;;;;;22.95;12.07;;;10.90;50.00;;;;;;5024789;28;20033;-78
2021/03/30 07:18:53;;;;;;;32.88;13.15;;;11.10;50.00;;;;;;5017151;28;20024;-76
2021/03/30 07:21:23;;;;;;;31.58;13.38;;;11.20;49.70;;;;;;5024825;28;20022;-76
2021/03/30 07:23:57;;;;;;;59.70;18.55;;;11.30;49.40;;;;;;5023806;28;20048;-76
2021/03/30 07:26:25;;;;;;;27.83;13.18;;;11.40;49.40;;;;;;5021893;28;20066;-76
2021/03/30 07:29:03;;;;;;;31.17;14.77;;;11.50;49.20;;;;;;5024315;28;20103;-77
2021/03/30 07:31:31;;;;;;;25.77;14.45;;;11.70;49.10;;;;;;5020874;28;20371;-76
2021/03/30 07:34:12;;;;;;;56.05;14.75;;;11.70;48.80;;;;;;5023770;28;20021;-76
2021/03/30 07:37:06;;;;;;;34.42;13.15;;;11.90;48.70;;;;;;5023921;28;20033;-76
2021/03/30 07:39:38;;;;;;;30.73;13.07;;;11.90;48.60;;;;;;5021392;28;20115;-76
2021/03/30 07:42:04;;;;;;;21.27;12.32;;;12.10;48.40;;;;;;5022821;28;20248;-76
2021/03/30 07:44:30;;;;;;;46.75;14.10;;;12.20;48.10;;;;;;5022024;28;20112;-76
2021/03/30 07:46:57;;;;;;;38.25;13.38;;;12.30;47.90;;;;;;5024126;28;20085;-75
2021/03/30 07:49:27;;;;;;;36.78;12.77;;;12.40;47.50;;;;;;5022314;28;20038;-76
2021/03/30 07:51:52;;;;;;;24.90;11.00;;;12.50;47.10;;;;;;5022365;28;20026;-76
2021/03/30 07:54:23;;;;;;;28.80;12.48;;;12.70;46.80;;;;;;5022990;28;20028;-75
2021/03/30 07:56:51;;;;;;;43.28;13.90;;;12.90;46.40;;;;;;5020446;28;20407;-75
2021/03/30 07:59:44;;;;;;;31.02;13.02;;;13.00;46.00;;;;;;5022097;28;20034;-76
2021/03/30 08:02:13;;;;;;;57.80;14.75;;;13.20;45.80;;;;;;5020234;28;20068;-76
2021/03/30 08:04:58;;;;;;;34.88;13.35;;;13.50;45.70;;;;;;5022733;28;20061;-75
2021/03/30 08:07:47;;;;;;;;;;;13.70;45.50;;;;;;5023980;28;20100;-77
2021/03/30 08:10:24;;;;;;;28.48;11.60;;;14.00;45.40;;;;;;5012414;28;19916;-77
2021/03/30 08:12:50;;;;;;;33.78;11.50;;;14.20;44.50;;;;;;5017049;28;20061;-75
2021/03/30 08:15:40;;;;;;;19.63;10.00;;;14.40;44.00;;;;;;5014230;28;20116;-76
2021/03/30 08:18:07;;;;;;;16.90;9.45;;;14.70;42.90;;;;;;5014538;28;20029;-76
2021/03/30 08:20:51;;;;;;;28.70;10.02;;;15.00;42.40;;;;;;5013141;28;20415;-76
2021/03/30 08:23:17;;;;;;;20.30;9.82;;;15.30;41.30;;;;;;5014253;28;20083;-77
2021/03/30 08:25:46;;;;;;;16.10;9.27;;;15.60;41.10;;;;;;5013112;28;20444;-75
2021/03/30 08:28:50;;;;;;;36.20;9.68;;;16.00;40.70;;;;;;5014175;28;20033;-76
2021/03/30 08:31:20;;;;;;;46.50;9.98;;;16.60;39.40;;;;;;5014214;28;20045;-76
2021/03/30 08:33:49;;;;;;;11.02;6.95;;;17.40;39.30;;;;;;5014429;28;20030;-75
2021/03/30 08:36:45;;;;;;;49.90;10.43;;;18.10;38.40;;;;;;5014061;28;20045;-76
2021/03/30 08:39:20;;;;;;;18.83;8.15;;;19.00;37.20;;;;;;5012883;28;20113;-80
2021/03/30 08:42:07;;;;;;;25.48;8.25;;;19.70;36.20;;;;;;5014174;28;20037;-76
2021/03/30 08:45:03;;;;;;;32.42;8.88;;;20.40;35.20;;;;;;5014053;28;20034;-75
2021/03/30 08:47:39;;;;;;;19.55;8.45;;;21.30;34.30;;;;;;5013653;28;20080;-76
2021/03/30 08:50:24;;;;;;;26.88;8.77;;;22.20;34.00;;;;;;5014081;28;20029;-76
2021/03/30 08:52:55;;;;;;;13.52;8.70;;;23.00;32.50;;;;;;5012471;28;20030;-76
2021/03/30 08:55:47;;;;;;;16.73;9.10;;;24.00;32.00;;;;;;5013701;28;20037;-76
2021/03/30 08:58:17;;;;;;;18.13;8.88;;;24.80;30.70;;;;;;5011878;28;20064;-76
2021/03/30 09:00:43;;;;;;;13.82;7.50;;;25.60;30.00;;;;;;5013711;28;20030;-76
2021/03/30 09:03:09;;;;;;;13.13;7.40;;;26.20;29.60;;;;;;5012769;28;20026;-76
2021/03/30 09:05:39;;;;;;;16.35;7.85;;;26.50;28.90;;;;;;5013554;28;20036;-75
2021/03/30 09:08:06;;;;;;;42.95;9.50;;;26.90;28.30;;;;;;5013525;28;20483;-76
2021/03/30 09:10:32;;;;;;;17.38;7.60;;;27.20;28.20;;;;;;5013644;28;20542;-75
2021/03/30 09:13:15;;;;;;;18.25;8.07;;;27.70;27.80;;;;;;5013840;28;20029;-76
2021/03/30 09:15:43;;;;;;;40.63;8.77;;;28.30;27.30;;;;;;5013706;28;20022;-75
2021/03/30 09:18:09;;;;;;;46.25;9.02;;;28.80;27.30;;;;;;5013605;28;20033;-75
2021/03/30 09:20:37;;;;;;;48.35;10.32;;;29.20;27.00;;;;;;5013865;28;20026;-75
2021/03/30 09:23:14;;;;;;;18.42;7.22;;;29.60;26.80;;;;;;5013471;28;20022;-76
2021/03/30 09:25:43;;;;;;;26.67;6.18;;;30.00;26.10;;;;;;5013375;28;20049;-76
2021/03/30 09:28:22;;;;;;;9.95;6.32;;;30.40;26.10;;;;;;5033351;28;20025;-75
2021/03/30 09:30:49;;;;;;;66.97;9.55;;;30.90;25.50;;;;;;5033177;28;20032;-75
2021/03/30 09:33:15;;;;;;;26.00;7.18;;;31.30;25.40;;;;;;5033148;28;20029;-76
2021/03/30 09:35:41;;;;;;;8.88;5.32;;;31.70;25.30;;;;;;5032860;28;20574;-76
2021/03/30 09:38:08;;;;;;;8.23;4.97;;;31.90;24.90;;;;;;5015508;28;20084;-76
2021/03/30 09:40:35;;;;;;;19.58;5.78;;;32.00;24.50;;;;;;5013255;28;20026;-76
2021/03/30 09:43:06;;;;;;;28.95;8.13;;;32.30;24.50;;;;;;5013135;28;20104;-75
2021/03/30 09:45:33;;;;;;;12.25;6.80;;;32.40;24.30;;;;;;5013193;28;20120;-76
2021/03/30 09:48:03;;;;;;;26.67;6.53;;;32.60;24.50;;;;;;5012958;28;20022;-76
2021/03/30 09:50:29;;;;;;;10.63;5.90;;;32.60;24.20;;;;;;5014199;28;20030;-77
2021/03/30 09:53:02;;;;;;;61.15;9.05;;;32.80;24.10;;;;;;5016008;28;20084;-76
2021/03/30 09:55:43;;;;;;;16.08;6.18;;;32.90;24.00;;;;;;5021135;28;20140;-76
2021/03/30 09:58:11;;;;;;;10.05;5.70;;;33.20;24.00;;;;;;5035671;28;20034;-76
2021/03/30 10:00:48;;;;;;;25.23;6.60;;;33.60;24.00;;;;;;5036733;28;20454;-76
2021/03/30 10:03:16;;;;;;;32.90;7.43;;;33.70;23.60;;;;;;5032902;28;20030;-76
2021/03/30 10:05:44;;;;;;;12.85;5.13;;;33.80;23.60;;;;;;5024904;28;20041;-76
2021/03/30 10:08:22;;;;;;;11.43;4.93;;;33.90;23.40;;;;;;5024140;28;20021;-76
2021/03/30 10:10:53;;;;;;;8.90;4.88;;;34.00;23.10;;;;;;5023607;28;20017;-77
2021/03/30 10:13:36;;;;;;;9.65;5.22;;;34.10;23.00;;;;;;5017669;28;20030;-76
2021/03/30 10:16:13;;;;;;;9.32;5.38;;;34.10;22.80;;;;;;5020545;28;20483;-76
2021/03/30 10:18:40;;;;;;;31.70;7.40;;;34.20;23.00;;;;;;5024978;28;20029;-76
2021/03/30 10:21:12;;;;;;;67.53;10.15;;;34.30;23.10;;;;;;5034282;28;20032;-76
2021/03/30 10:23:43;;;;;;;17.25;6.30;;;34.50;23.00;;;;;;5024965;28;20026;-76
2021/03/30 10:26:15;;;;;;;11.85;5.70;;;34.60;23.00;;;;;;5024469;28;20072;-76
2021/03/30 10:28:49;;;;;;;42.90;8.07;;;34.70;22.90;;;;;;5022906;28;20053;-76
2021/03/30 10:34:27;;;;;;;25.52;6.78;;;34.80;22.80;;;;;;5025617;28;20053;-76
2021/03/30 10:36:55;;;;;;;14.75;6.10;;;34.90;22.70;;;;;;5029138;28;20032;-77
2021/03/30 10:39:30;;;;;;;11.23;5.10;;;34.90;22.70;;;;;;5036333;28;20025;-77
2021/03/30 10:42:06;;;;;;;12.88;5.45;;;34.80;22.40;;;;;;5036170;28;20026;-76
2021/03/30 10:44:37;;;;;;;11.65;5.30;;;34.70;22.40;;;;;;5035061;28;20045;-75
2021/03/30 10:47:16;;;;;;;35.33;6.22;;;34.70;22.40;;;;;;5036488;28;20037;-76
2021/03/30 10:49:44;;;;;;;66.95;9.55;;;34.80;22.40;;;;;;5035942;28;20040;-76
2021/03/30 10:52:25;;;;;;;12.25;5.88;;;34.90;22.30;;;;;;5035786;28;20443;-76
2021/03/30 10:54:53;;;;;;;10.82;5.43;;;35.00;22.20;;;;;;5036029;28;20029;-76
2021/03/30 10:57:21;;;;;;;18.17;5.30;;;35.20;22.30;;;;;;5036492;28;20032;-76
2021/03/30 10:59:47;;;;;;;6.50;4.50;;;35.30;22.70;;;;;;5036001;28;20036;-77
2021/03/30 11:02:15;;;;;;;19.92;5.03;;;35.50;22.00;;;;;;5035785;28;20124;-76
2021/03/30 11:04:41;;;;;;;6.03;4.60;;;35.70;22.00;;;;;;5035645;28;20107;-76
2021/03/30 11:07:08;;;;;;;7.78;5.82;;;36.00;21.90;;;;;;5035406;28;20064;-76
2021/03/30 11:09:35;;;;;;;8.18;4.60;;;36.10;21.90;;;;;;5032384;28;20034;-79
2021/03/30 11:12:01;;;;;;;17.67;6.15;;;36.20;21.90;;;;;;5025609;28;20059;-77
2021/03/30 11:14:27;;;;;;;8.00;4.93;;;36.30;21.90;;;;;;5024252;28;20466;-77
2021/03/30 11:16:53;;;;;;;13.25;4.70;;;36.30;21.70;;;;;;5024000;28;20045;-77
2021/03/30 11:19:19;;;;;;;6.13;4.10;;;36.20;21.60;;;;;;5014857;28;20026;-77
2021/03/30 11:21:46;;;;;;;26.77;5.85;;;36.20;21.50;;;;;;5016074;28;20472;-77
2021/03/30 11:24:18;;;;;;;36.90;6.30;;;36.40;21.50;;;;;;5015797;28;20018;-77
2021/03/30 11:26:47;;;;;;;30.33;5.47;;;36.70;21.50;;;;;;5015470;28;20388;-77
2021/03/30 11:29:22;;;;;;;13.93;4.82;;;36.90;21.40;;;;;;5015601;28;20495;-77
2021/03/30 11:34:37;;;;;;;31.27;6.15;;;37.10;21.30;;;;;;5015333;28;20034;-77
2021/03/30 11:39:35;;;;;;;6.72;4.35;;;37.40;21.30;;;;;;5015241;28;20436;-77
2021/03/30 11:42:01;;;;;;;5.75;4.57;;;37.30;21.30;;;;;;5015071;28;20029;-77
2021/03/30 11:44:27;;;;;;;21.60;5.82;;;37.20;21.10;;;;;;5013800;28;20360;-77
2021/03/30 11:46:52;;;;;;;7.93;4.20;;;37.10;21.20;;;;;;5015056;28;20033;-77
2021/03/30 11:49:18;;;;;;;113.13;11.82;;;37.20;21.00;;;;;;5015126;28;20072;-77
2021/03/30 11:51:44;;;;;;;6.70;4.30;;;37.20;21.00;;;;;;5014901;28;20022;-76
2021/03/30 11:54:09;;;;;;;31.67;5.90;;;37.20;21.10;;;;;;5014743;28;20022;-77
2021/03/30 11:56:35;;;;;;;23.30;5.10;;;37.30;21.10;;;;;;5014889;28;20033;-78
2021/03/30 11:59:01;;;;;;;12.02;3.95;;;37.50;20.90;;;;;;5014882;28;20429;-77
2021/03/30 12:01:26;;;;;;;12.10;5.30;;;37.70;20.80;;;;;;5015798;28;20045;-78
2021/03/30 12:03:52;;;;;;;26.77;5.88;;;37.80;20.70;;;;;;5024663;28;20049;-77
2021/03/30 12:06:18;;;;;;;14.57;5.03;;;38.00;20.80;;;;;;5022245;28;20033;-76
2021/03/30 12:08:43;;;;;;;7.38;4.47;;;38.00;20.80;;;;;;5023976;28;20029;-78
2021/03/30 12:11:09;;;;;;;31.42;6.85;;;37.90;20.80;;;;;;5022872;28;20425;-78
2021/03/30 12:13:35;;;;;;;20.75;5.25;;;37.80;20.70;;;;;;5025102;28;20100;-78
2021/03/30 12:16:00;;;;;;;9.45;4.70;;;37.80;20.70;;;;;;5024775;28;20029;-77
2021/03/30 12:18:26;;;;;;;14.77;5.15;;;37.90;20.70;;;;;;5022830;28;20482;-79
2021/03/30 12:20:52;;;;;;;13.48;4.80;;;38.00;20.70;;;;;;5024480;28;20027;-78
2021/03/30 12:23:18;;;;;;;16.98;5.85;;;38.00;20.70;;;;;;5021409;28;20095;-80
2021/03/30 12:25:43;;;;;;;15.02;5.20;;;38.10;20.70;;;;;;5024567;28;20406;-73
2021/03/30 12:28:09;;;;;;;12.65;5.20;;;38.20;20.80;;;;;;5017025;28;20468;-71
2021/03/30 12:30:35;;;;;;;7.93;5.22;;;38.20;20.80;;;;;;5026447;28;20068;-74
2021/03/30 12:33:01;;;;;;;13.93;4.93;;;38.10;20.80;;;;;;5020322;28;20097;-75
2021/03/30 12:35:27;;;;;;;14.80;4.45;;;38.20;20.80;;;;;;5022828;28;20033;-77
2021/03/30 12:37:53;;;;;;;11.98;4.90;;;38.10;20.80;;;;;;5019143;28;20449;-74
2021/03/30 12:40:18;;;;;;;7.93;5.13;;;38.10;20.90;;;;;;5014489;28;20026;-79
2021/03/30 12:42:44;;;;;;;47.45;7.50;;;37.90;20.70;;;;;;5013813;28;20068;-75
2021/03/30 12:45:10;;;;;;;9.95;4.70;;;37.90;20.90;;;;;;5013776;28;20099;-75
2021/03/30 12:47:37;;;;;;;26.73;6.05;;;38.00;20.90;;;;;;5013476;28;20030;-75
2021/03/30 12:50:04;;;;;;;77.35;10.48;;;38.10;20.80;;;;;;5018021;28;20029;-76
2021/03/30 12:52:29;;;;;;;24.70;6.38;;;38.10;21.20;;;;;;5023715;28;20030;-75
2021/03/30 12:55:03;;;;;;;16.08;6.40;;;38.10;20.70;;;;;;5022010;28;20032;-75
2021/03/30 12:57:29;;;;;;;9.95;6.13;;;37.90;20.70;;;;;;5020053;28;20132;-75
2021/03/30 12:59:55;;;;;;;115.53;12.23;;;37.90;20.80;;;;;;5021646;28;20026;-75
2021/03/30 13:02:20;;;;;;;23.17;5.82;;;37.80;20.80;;;;;;5019632;28;20145;-75